^^

Nearby METAR Reports

METAR (Meteorological Aerodrome Report) are Airport generated local weather condition reports for use, predominantly by pilots, these reports are also used as part of compliment of data sets required for Chatteris Weathers prediction software - WxSim.

EGUN - Mildenhall Raf, United Kingdom
Distance from station: ESE 19mi, 31km
Updated: 21/03/2019 00:56
Clear
Clear
 Wind from SW
Wind: SW 7 mph , 11 km/h
Temperature: 7°C
Wind Chill: 5°C
Dew Point: 7°C
Humidity: 100%
Barometer: 1031.8 hPa
Clouds: Clear
Visibility: 6 miles , 10 km
2019/03/21 00:56 EGUN 210056Z 22006KT 9999 CLR 07/07 A3047 RMK AO2A SLP322 WND DATA ESTMD T00730073 $
EGSC - Cambridge, United Kingdom
Distance from station: SSE 20mi, 32km
Updated: 20/03/2019 17:50
NOT Current
Few Clouds
Few Clouds
 Wind from SSW
Wind: SSW 7 mph , 11 km/h
Temperature: 11°C
Dew Point: 7°C
Humidity: 77%
Barometer: 1032 hPa
Clouds: Few Clouds
Visibility: 6 miles , 10 km
Cloud details: Few Clouds 610 m
2019/03/20 17:50 EGSC 201750Z 21006KT 9999 FEW020 11/07 Q1032
 
EGUL - Lakenheath Raf, United Kingdom
Distance from station: E 22mi, 36km
Updated: 21/03/2019 00:56
Clear
Clear
 Wind from SSW
Wind: SSW 5 mph , 7 km/h
Temperature: 7°C
Wind Chill: 6°C
Dew Point: 5°C
Humidity: 87%
Barometer: 1031.5 hPa
Clouds: Clear
Visibility: 6 miles , 10 km
2019/03/21 00:56 EGUL 210056Z AUTO 20004KT 9999 CLR 07/05 A3046 RMK AO2 SLP318 T00730054 $
EGXT - Wittering Raf, United Kingdom
Distance from station: WNW 24mi, 38km
Updated: 21/03/2019 00:50
Mist, Few clouds
Mist, Few clouds
 Wind from WSW
Wind: WSW 13 mph , 20 km/h
Temperature: 8°C
Wind Chill: 4°C
Dew Point: 7°C
Humidity: 93%
Barometer: 1031 hPa
Summary: Mist
Clouds: Few Clouds
Visibility: 4 miles , 6 km
Cloud details: Few Clouds 183 m
2019/03/21 00:50 EGXT 210050Z AUTO 24011KT 6000 BR FEW006/// 08/07 Q1031
 
EGYH - Holbeach (aut), United Kingdom
Distance from station: N 27mi, 44km
Updated: 20/03/2019 15:50
NOT Current
Clear
Clear
 Wind from SSW
Wind: SSW 17 mph , 28 km/h
Temperature: 15°C
Dew Point: 10°C
Humidity: 72%
Barometer: 1030 hPa
Summary: Clear
Visibility: greater than 7 miles , 10 km
2019/03/20 15:50 EGYH 201550Z 21015KT CAVOK 15/10 Q1030 BLU
EGSS - Stansted Airport, United Kingdom
Distance from station: SE 11mi, 18km
Updated: 21/03/2019 00:50
Overcast
Overcast
 Wind from WSW
Wind: WSW 8 mph , 13 km/h
Temperature: 9°C
Wind Chill: 7°C
Dew Point: 7°C
Humidity: 87%
Barometer: 1032 hPa
Clouds: Overcast
Visibility: 6 miles , 10 km
Cloud details: Overcast 396 m
2019/03/21 00:50 EGSS 210050Z AUTO 24007KT 9999 OVC013 09/07 Q1032
 
EGGW - Luton Airport, United Kingdom
Distance from station: WSW 19mi, 31km
Updated: 21/03/2019 00:50
Overcast
Overcast
 Wind from SW
Wind: SW 9 mph , 15 km/h
Temperature: 8°C
Wind Chill: 5°C
Dew Point: 7°C
Humidity: 93%
Barometer: 1032 hPa
Clouds: Overcast
Visibility: 6 miles , 10 km
Cloud details: Overcast 335 m
2019/03/21 00:50 EGGW 210050Z AUTO 23008KT 9999 OVC011 08/07 Q1032
EGLL - London/Heathrow, United Kingdom
Distance from station: SSW 41mi, 66km
Updated: 21/03/2019 00:50
Overcast
Overcast
 Wind from SSW
Wind: SSW 8 mph , 13 km/h
Temperature: 10°C
Wind Chill: 8°C
Dew Point: 8°C
Humidity: 88%
Barometer: 1033 hPa
Clouds: Overcast
Visibility: 6 miles , 10 km
Cloud details: Overcast 457 m
2019/03/21 00:50 EGLL 210050Z AUTO 21007KT 9999 OVC015 10/08 Q1033 TEMPO BKN014
 
EGKK - London/Gatwick A, United Kingdom
Distance from station: S 60mi, 97km
Updated: 21/03/2019 00:50
Mostly cloudy
Mostly cloudy
 Wind from SW
Wind: SW 6 mph , 9 km/h
Temperature: 9°C
Wind Chill: 7°C
Dew Point: 8°C
Humidity: 94%
Barometer: 1033 hPa
Clouds: Mostly cloudy
Visibility: 6 miles , 10 km
Cloud details: Mostly cloudy 244 m
2019/03/21 00:50 EGKK 210050Z 23005KT 9999 BKN008 09/08 Q1033
EGUY - Wyton Raf, United Kingdom
Distance from station: SW 11mi, 18km
Updated: 04/10/2015 09:50
NOT Current
Haze, Clear
Haze, Clear
 Wind from SSE
Wind: SSE 2 mph , 4 km/h
Temperature: 11°C
Dew Point: 7°C
Humidity: 77%
Barometer: 1014 hPa
Summary: Haze
Clouds: Clear
Visibility: 4 miles , 6 km
2015/10/04 08:50 EGUY 040850Z 15002KT 6000 HZ SKC 11/07 Q1014 WHT

Met Office METAR data link, decoding METAR data code.